sensor_id;sensor_type;location;lat;lon;timestamp;temperature;humidity
53653;DHT22;39553;52.954;5.932;2023-04-01T00:00:57;9.60;99.90
53653;DHT22;39553;52.954;5.932;2023-04-01T00:03:24;9.50;99.90
53653;DHT22;39553;52.954;5.932;2023-04-01T00:05:52;9.60;99.90
53653;DHT22;39553;52.954;5.932;2023-04-01T00:08:18;9.60;99.90
53653;DHT22;39553;52.954;5.932;2023-04-01T00:10:44;9.60;99.90
53653;DHT22;39553;52.954;5.932;2023-04-01T00:13:10;9.60;99.90
53653;DHT22;39553;52.954;5.932;2023-04-01T00:15:35;9.60;99.90
53653;DHT22;39553;52.954;5.932;2023-04-01T00:18:01;9.60;99.90
53653;DHT22;39553;52.954;5.932;2023-04-01T00:20:28;9.60;99.90
53653;DHT22;39553;52.954;5.932;2023-04-01T00:22:54;9.70;99.90
53653;DHT22;39553;52.954;5.932;2023-04-01T00:25:20;9.50;99.90
53653;DHT22;39553;52.954;5.932;2023-04-01T00:27:46;9.70;99.90
53653;DHT22;39553;52.954;5.932;2023-04-01T00:30:12;9.60;99.90
53653;DHT22;39553;52.954;5.932;2023-04-01T00:32:38;9.50;99.90
53653;DHT22;39553;52.954;5.932;2023-04-01T00:35:04;9.60;99.90
53653;DHT22;39553;52.954;5.932;2023-04-01T00:37:30;9.70;99.90
53653;DHT22;39553;52.954;5.932;2023-04-01T00:39:56;9.70;99.90
53653;DHT22;39553;52.954;5.932;2023-04-01T00:42:23;9.70;99.90
53653;DHT22;39553;52.954;5.932;2023-04-01T00:44:53;9.70;99.90
53653;DHT22;39553;52.954;5.932;2023-04-01T00:47:19;9.70;99.90
53653;DHT22;39553;52.954;5.932;2023-04-01T00:49:48;9.50;99.90
53653;DHT22;39553;52.954;5.932;2023-04-01T00:52:19;9.50;99.90
53653;DHT22;39553;52.954;5.932;2023-04-01T00:54:51;9.80;99.90
53653;DHT22;39553;52.954;5.932;2023-04-01T00:57:31;9.60;99.90
53653;DHT22;39553;52.954;5.932;2023-04-01T00:59:58;9.70;99.90
53653;DHT22;39553;52.954;5.932;2023-04-01T01:02:24;10.10;99.90
53653;DHT22;39553;52.954;5.932;2023-04-01T01:04:50;9.70;99.90
53653;DHT22;39553;52.954;5.932;2023-04-01T01:10:18;9.60;99.90
53653;DHT22;39553;52.954;5.932;2023-04-01T01:13:15;9.70;99.90
53653;DHT22;39553;52.954;5.932;2023-04-01T01:16:10;9.70;99.90
53653;DHT22;39553;52.954;5.932;2023-04-01T01:20:03;9.50;99.90
53653;DHT22;39553;52.954;5.932;2023-04-01T01:25:25;9.60;99.90
53653;DHT22;39553;52.954;5.932;2023-04-01T01:28:20;9.70;99.90
53653;DHT22;39553;52.954;5.932;2023-04-01T01:36:16;9.70;99.90
53653;DHT22;39553;52.954;5.932;2023-04-01T01:38:45;9.50;99.90
53653;DHT22;39553;52.954;5.932;2023-04-01T01:41:14;9.70;99.90
53653;DHT22;39553;52.954;5.932;2023-04-01T01:43:43;9.60;99.90
53653;DHT22;39553;52.954;5.932;2023-04-01T01:46:13;9.60;99.90
53653;DHT22;39553;52.954;5.932;2023-04-01T01:48:42;9.50;99.90
53653;DHT22;39553;52.954;5.932;2023-04-01T01:51:09;9.60;99.90
53653;DHT22;39553;52.954;5.932;2023-04-01T01:53:35;9.70;99.90
53653;DHT22;39553;52.954;5.932;2023-04-01T01:56:01;9.70;99.90
53653;DHT22;39553;52.954;5.932;2023-04-01T01:58:44;9.70;99.90
53653;DHT22;39553;52.954;5.932;2023-04-01T02:01:17;9.60;99.90
53653;DHT22;39553;52.954;5.932;2023-04-01T02:03:45;9.50;99.90
53653;DHT22;39553;52.954;5.932;2023-04-01T02:06:16;9.70;99.90
53653;DHT22;39553;52.954;5.932;2023-04-01T02:09:00;9.60;99.90
53653;DHT22;39553;52.954;5.932;2023-04-01T02:11:40;9.70;99.90
53653;DHT22;39553;52.954;5.932;2023-04-01T02:14:15;9.60;99.90
53653;DHT22;39553;52.954;5.932;2023-04-01T02:19:17;9.50;99.90
53653;DHT22;39553;52.954;5.932;2023-04-01T02:21:50;9.70;99.90
53653;DHT22;39553;52.954;5.932;2023-04-01T02:24:19;9.50;99.90
53653;DHT22;39553;52.954;5.932;2023-04-01T02:26:52;9.60;99.90
53653;DHT22;39553;52.954;5.932;2023-04-01T02:29:21;9.70;99.90
53653;DHT22;39553;52.954;5.932;2023-04-01T02:31:47;9.70;99.90
53653;DHT22;39553;52.954;5.932;2023-04-01T02:34:13;9.70;99.90
53653;DHT22;39553;52.954;5.932;2023-04-01T02:36:39;9.60;99.90
53653;DHT22;39553;52.954;5.932;2023-04-01T02:39:06;9.50;99.90
53653;DHT22;39553;52.954;5.932;2023-04-01T02:41:39;9.60;99.90
53653;DHT22;39553;52.954;5.932;2023-04-01T02:44:09;9.60;99.90
53653;DHT22;39553;52.954;5.932;2023-04-01T02:46:36;9.60;99.90
53653;DHT22;39553;52.954;5.932;2023-04-01T02:49:02;9.70;99.90
53653;DHT22;39553;52.954;5.932;2023-04-01T02:51:28;9.70;99.90
53653;DHT22;39553;52.954;5.932;2023-04-01T02:53:54;9.70;99.90
53653;DHT22;39553;52.954;5.932;2023-04-01T02:56:20;9.60;99.90
53653;DHT22;39553;52.954;5.932;2023-04-01T02:58:47;9.60;99.90
53653;DHT22;39553;52.954;5.932;2023-04-01T03:01:13;9.50;99.90
53653;DHT22;39553;52.954;5.932;2023-04-01T03:03:39;9.50;99.90
53653;DHT22;39553;52.954;5.932;2023-04-01T03:06:09;9.60;99.90
53653;DHT22;39553;52.954;5.932;2023-04-01T03:08:35;9.40;99.90
53653;DHT22;39553;52.954;5.932;2023-04-01T03:11:01;9.50;99.90
53653;DHT22;39553;52.954;5.932;2023-04-01T03:13:27;9.40;99.90
53653;DHT22;39553;52.954;5.932;2023-04-01T03:15:53;9.40;99.90
53653;DHT22;39553;52.954;5.932;2023-04-01T03:18:19;9.50;99.90
53653;DHT22;39553;52.954;5.932;2023-04-01T03:20:45;9.40;99.90
53653;DHT22;39553;52.954;5.932;2023-04-01T03:23:12;9.40;99.90
53653;DHT22;39553;52.954;5.932;2023-04-01T03:25:38;9.40;99.90
53653;DHT22;39553;52.954;5.932;2023-04-01T03:28:04;9.30;99.90
53653;DHT22;39553;52.954;5.932;2023-04-01T03:30:30;9.30;99.90
53653;DHT22;39553;52.954;5.932;2023-04-01T03:33:00;9.40;99.90
53653;DHT22;39553;52.954;5.932;2023-04-01T03:35:27;9.30;99.90
53653;DHT22;39553;52.954;5.932;2023-04-01T03:37:54;9.30;99.90
53653;DHT22;39553;52.954;5.932;2023-04-01T03:40:20;9.20;99.90
53653;DHT22;39553;52.954;5.932;2023-04-01T03:42:46;9.20;99.90
53653;DHT22;39553;52.954;5.932;2023-04-01T03:45:12;9.40;99.90
53653;DHT22;39553;52.954;5.932;2023-04-01T03:47:38;9.30;99.90
53653;DHT22;39553;52.954;5.932;2023-04-01T03:50:05;9.40;99.90
53653;DHT22;39553;52.954;5.932;2023-04-01T03:52:31;9.30;99.90
53653;DHT22;39553;52.954;5.932;2023-04-01T03:54:57;9.20;99.90
53653;DHT22;39553;52.954;5.932;2023-04-01T03:57:23;9.20;99.90
53653;DHT22;39553;52.954;5.932;2023-04-01T03:59:49;9.30;99.90
53653;DHT22;39553;52.954;5.932;2023-04-01T04:02:15;9.30;99.90
53653;DHT22;39553;52.954;5.932;2023-04-01T04:04:41;9.30;99.90
53653;DHT22;39553;52.954;5.932;2023-04-01T04:07:07;9.20;99.90
53653;DHT22;39553;52.954;5.932;2023-04-01T04:09:32;9.20;99.90
53653;DHT22;39553;52.954;5.932;2023-04-01T04:11:59;9.20;99.90
53653;DHT22;39553;52.954;5.932;2023-04-01T04:14:25;9.20;99.90
53653;DHT22;39553;52.954;5.932;2023-04-01T04:16:51;9.20;99.90
53653;DHT22;39553;52.954;5.932;2023-04-01T04:19:17;9.30;99.90
53653;DHT22;39553;52.954;5.932;2023-04-01T04:21:43;9.30;99.90
53653;DHT22;39553;52.954;5.932;2023-04-01T04:24:09;9.20;99.90
53653;DHT22;39553;52.954;5.932;2023-04-01T04:26:35;9.20;99.90
53653;DHT22;39553;52.954;5.932;2023-04-01T04:29:02;9.20;99.90
53653;DHT22;39553;52.954;5.932;2023-04-01T04:31:28;9.40;99.90
53653;DHT22;39553;52.954;5.932;2023-04-01T04:33:54;9.20;99.90
53653;DHT22;39553;52.954;5.932;2023-04-01T04:36:20;9.20;99.90
53653;DHT22;39553;52.954;5.932;2023-04-01T04:38:47;9.40;99.90
53653;DHT22;39553;52.954;5.932;2023-04-01T04:41:14;9.20;99.90
53653;DHT22;39553;52.954;5.932;2023-04-01T04:43:41;9.40;99.90
53653;DHT22;39553;52.954;5.932;2023-04-01T04:46:10;9.40;99.90
53653;DHT22;39553;52.954;5.932;2023-04-01T04:48:36;9.20;99.90
53653;DHT22;39553;52.954;5.932;2023-04-01T04:51:02;9.40;99.90
53653;DHT22;39553;52.954;5.932;2023-04-01T04:53:29;9.40;99.90
53653;DHT22;39553;52.954;5.932;2023-04-01T04:55:54;9.30;99.90
53653;DHT22;39553;52.954;5.932;2023-04-01T04:58:20;9.40;99.90
53653;DHT22;39553;52.954;5.932;2023-04-01T05:00:46;9.40;99.90
53653;DHT22;39553;52.954;5.932;2023-04-01T05:03:13;9.30;99.90
53653;DHT22;39553;52.954;5.932;2023-04-01T05:05:39;9.40;99.90
53653;DHT22;39553;52.954;5.932;2023-04-01T05:08:05;9.40;99.90
53653;DHT22;39553;52.954;5.932;2023-04-01T05:10:31;9.40;99.90
53653;DHT22;39553;52.954;5.932;2023-04-01T05:12:58;9.30;99.90
53653;DHT22;39553;52.954;5.932;2023-04-01T05:15:24;9.30;99.90
53653;DHT22;39553;52.954;5.932;2023-04-01T05:17:49;9.40;99.90
53653;DHT22;39553;52.954;5.932;2023-04-01T05:20:15;9.30;99.90
53653;DHT22;39553;52.954;5.932;2023-04-01T05:22:42;9.50;99.90
53653;DHT22;39553;52.954;5.932;2023-04-01T05:25:08;9.20;99.90
53653;DHT22;39553;52.954;5.932;2023-04-01T05:27:34;9.40;99.90
53653;DHT22;39553;52.954;5.932;2023-04-01T05:30:00;9.50;99.90
53653;DHT22;39553;52.954;5.932;2023-04-01T05:32:26;9.40;99.90
53653;DHT22;39553;52.954;5.932;2023-04-01T05:34:52;9.30;99.90
53653;DHT22;39553;52.954;5.932;2023-04-01T05:37:19;9.40;99.90
53653;DHT22;39553;52.954;5.932;2023-04-01T05:39:45;9.30;99.90
53653;DHT22;39553;52.954;5.932;2023-04-01T05:42:11;9.60;99.90
53653;DHT22;39553;52.954;5.932;2023-04-01T05:44:37;9.40;99.90
53653;DHT22;39553;52.954;5.932;2023-04-01T05:47:04;9.60;99.90
53653;DHT22;39553;52.954;5.932;2023-04-01T05:49:30;9.40;99.90
53653;DHT22;39553;52.954;5.932;2023-04-01T05:51:57;9.50;99.90
53653;DHT22;39553;52.954;5.932;2023-04-01T05:54:24;9.60;99.90
53653;DHT22;39553;52.954;5.932;2023-04-01T05:56:50;9.40;99.90
53653;DHT22;39553;52.954;5.932;2023-04-01T05:59:15;9.60;99.90
53653;DHT22;39553;52.954;5.932;2023-04-01T06:01:41;9.60;99.90
53653;DHT22;39553;52.954;5.932;2023-04-01T06:04:14;9.70;99.90
53653;DHT22;39553;52.954;5.932;2023-04-01T06:06:41;9.50;99.90
53653;DHT22;39553;52.954;5.932;2023-04-01T06:09:28;9.70;99.90
53653;DHT22;39553;52.954;5.932;2023-04-01T06:20:24;9.60;99.90
53653;DHT22;39553;52.954;5.932;2023-04-01T06:28:26;9.60;99.90
53653;DHT22;39553;52.954;5.932;2023-04-01T06:36:26;9.60;99.90
53653;DHT22;39553;52.954;5.932;2023-04-01T06:39:27;9.70;99.90
53653;DHT22;39553;52.954;5.932;2023-04-01T06:45:14;9.70;99.90
53653;DHT22;39553;52.954;5.932;2023-04-01T06:53:53;9.80;99.90
53653;DHT22;39553;52.954;5.932;2023-04-01T06:56:24;9.90;99.90
53653;DHT22;39553;52.954;5.932;2023-04-01T06:58:55;9.80;99.90
53653;DHT22;39553;52.954;5.932;2023-04-01T07:01:33;10.00;99.90
53653;DHT22;39553;52.954;5.932;2023-04-01T07:04:04;9.80;99.90
53653;DHT22;39553;52.954;5.932;2023-04-01T07:06:58;9.90;99.90
53653;DHT22;39553;52.954;5.932;2023-04-01T07:09:37;9.90;99.90
53653;DHT22;39553;52.954;5.932;2023-04-01T07:12:15;9.90;99.90
53653;DHT22;39553;52.954;5.932;2023-04-01T07:14:44;9.80;99.90
53653;DHT22;39553;52.954;5.932;2023-04-01T07:17:23;10.00;99.90
53653;DHT22;39553;52.954;5.932;2023-04-01T07:20:05;10.10;99.90
53653;DHT22;39553;52.954;5.932;2023-04-01T07:22:42;9.90;99.90
53653;DHT22;39553;52.954;5.932;2023-04-01T07:25:14;10.00;99.90
53653;DHT22;39553;52.954;5.932;2023-04-01T07:27:42;10.00;99.90
53653;DHT22;39553;52.954;5.932;2023-04-01T07:30:14;9.90;99.90
53653;DHT22;39553;52.954;5.932;2023-04-01T07:33:05;10.10;99.90
53653;DHT22;39553;52.954;5.932;2023-04-01T07:35:46;10.00;99.90
53653;DHT22;39553;52.954;5.932;2023-04-01T07:38:42;10.20;99.90
53653;DHT22;39553;52.954;5.932;2023-04-01T07:41:19;10.20;99.90
53653;DHT22;39553;52.954;5.932;2023-04-01T07:44:10;10.40;99.90
53653;DHT22;39553;52.954;5.932;2023-04-01T07:52:00;10.30;99.90
53653;DHT22;39553;52.954;5.932;2023-04-01T07:54:47;10.60;99.90
53653;DHT22;39553;52.954;5.932;2023-04-01T08:00:27;10.60;99.90
53653;DHT22;39553;52.954;5.932;2023-04-01T08:03:18;10.40;99.90
53653;DHT22;39553;52.954;5.932;2023-04-01T08:05:53;10.40;99.90
53653;DHT22;39553;52.954;5.932;2023-04-01T08:08:46;10.60;99.90
53653;DHT22;39553;52.954;5.932;2023-04-01T08:16:46;10.70;99.90
53653;DHT22;39553;52.954;5.932;2023-04-01T08:19:35;10.60;99.90
53653;DHT22;39553;52.954;5.932;2023-04-01T08:22:14;10.80;99.90
53653;DHT22;39553;52.954;5.932;2023-04-01T08:24:45;10.90;99.90
53653;DHT22;39553;52.954;5.932;2023-04-01T08:27:21;10.80;99.90
53653;DHT22;39553;52.954;5.932;2023-04-01T08:29:58;11.00;99.90
53653;DHT22;39553;52.954;5.932;2023-04-01T08:33:29;10.90;99.90
53653;DHT22;39553;52.954;5.932;2023-04-01T08:35:43;10.90;99.90
53653;DHT22;39553;52.954;5.932;2023-04-01T08:38:16;11.10;99.90
53653;DHT22;39553;52.954;5.932;2023-04-01T08:40:57;11.20;99.90
53653;DHT22;39553;52.954;5.932;2023-04-01T08:43:42;11.20;99.90
53653;DHT22;39553;52.954;5.932;2023-04-01T08:46:53;11.10;99.90
53653;DHT22;39553;52.954;5.932;2023-04-01T08:52:29;11.10;99.90
53653;DHT22;39553;52.954;5.932;2023-04-01T09:00:31;11.00;99.90
53653;DHT22;39553;52.954;5.932;2023-04-01T09:06:24;11.00;99.90
53653;DHT22;39553;52.954;5.932;2023-04-01T09:10:05;11.10;99.90
53653;DHT22;39553;52.954;5.932;2023-04-01T09:17:37;10.90;99.90
53653;DHT22;39553;52.954;5.932;2023-04-01T09:20:30;11.10;99.90
53653;DHT22;39553;52.954;5.932;2023-04-01T09:28:48;11.10;99.90
53653;DHT22;39553;52.954;5.932;2023-04-01T09:35:01;11.00;99.90
53653;DHT22;39553;52.954;5.932;2023-04-01T09:43:28;10.80;99.90
53653;DHT22;39553;52.954;5.932;2023-04-01T10:14:32;10.60;99.90
53653;DHT22;39553;52.954;5.932;2023-04-01T10:34:51;10.50;99.90
53653;DHT22;39553;52.954;5.932;2023-04-01T11:00:46;10.40;99.90
53653;DHT22;39553;52.954;5.932;2023-04-01T11:10:17;10.40;99.90
53653;DHT22;39553;52.954;5.932;2023-04-01T11:15:57;10.40;99.90
53653;DHT22;39553;52.954;5.932;2023-04-01T11:18:41;10.60;99.90
53653;DHT22;39553;52.954;5.932;2023-04-01T11:29:18;10.40;99.90
53653;DHT22;39553;52.954;5.932;2023-04-01T11:43:21;10.10;99.90
53653;DHT22;39553;52.954;5.932;2023-04-01T11:46:03;10.20;99.90
53653;DHT22;39553;52.954;5.932;2023-04-01T12:08:02;10.60;99.90
53653;DHT22;39553;52.954;5.932;2023-04-01T12:13:34;10.60;99.90
53653;DHT22;39553;52.954;5.932;2023-04-01T12:27:12;10.40;99.90
53653;DHT22;39553;52.954;5.932;2023-04-01T12:30:15;10.40;99.90
53653;DHT22;39553;52.954;5.932;2023-04-01T12:35:59;10.40;99.90
53653;DHT22;39553;52.954;5.932;2023-04-01T12:41:52;10.30;99.90
53653;DHT22;39553;52.954;5.932;2023-04-01T12:44:45;10.40;99.90
53653;DHT22;39553;52.954;5.932;2023-04-01T12:55:38;10.20;99.90
53653;DHT22;39553;52.954;5.932;2023-04-01T13:12:18;10.00;99.90
53653;DHT22;39553;52.954;5.932;2023-04-01T13:17:53;10.00;99.90
53653;DHT22;39553;52.954;5.932;2023-04-01T13:26:00;10.10;99.90
53653;DHT22;39553;52.954;5.932;2023-04-01T13:28:35;10.10;99.90
53653;DHT22;39553;52.954;5.932;2023-04-01T13:42:23;10.40;99.90
53653;DHT22;39553;52.954;5.932;2023-04-01T13:48:04;10.30;99.90
53653;DHT22;39553;52.954;5.932;2023-04-01T14:01:53;10.30;99.90
53653;DHT22;39553;52.954;5.932;2023-04-01T14:04:49;10.20;99.90
53653;DHT22;39553;52.954;5.932;2023-04-01T14:22:13;9.80;99.90
53653;DHT22;39553;52.954;5.932;2023-04-01T14:25:20;9.80;99.90
53653;DHT22;39553;52.954;5.932;2023-04-01T14:42:28;9.40;99.90
53653;DHT22;39553;52.954;5.932;2023-04-01T14:47:59;9.50;99.90
53653;DHT22;39553;52.954;5.932;2023-04-01T14:50:40;9.40;99.90
53653;DHT22;39553;52.954;5.932;2023-04-01T14:55:55;9.40;99.90
53653;DHT22;39553;52.954;5.932;2023-04-01T14:58:40;9.30;99.90
53653;DHT22;39553;52.954;5.932;2023-04-01T15:29:00;9.00;99.90
53653;DHT22;39553;52.954;5.932;2023-04-01T15:34:32;8.80;99.90
53653;DHT22;39553;52.954;5.932;2023-04-01T15:38:02;8.80;99.90
53653;DHT22;39553;52.954;5.932;2023-04-01T15:49:37;8.70;99.90
53653;DHT22;39553;52.954;5.932;2023-04-01T15:51:48;8.70;99.90
53653;DHT22;39553;52.954;5.932;2023-04-01T16:15:02;8.40;99.90
53653;DHT22;39553;52.954;5.932;2023-04-01T16:20:44;8.30;99.90
53653;DHT22;39553;52.954;5.932;2023-04-01T16:23:33;8.40;99.90
53653;DHT22;39553;52.954;5.932;2023-04-01T16:26:08;8.30;99.90
53653;DHT22;39553;52.954;5.932;2023-04-01T16:28:40;8.00;99.90
53653;DHT22;39553;52.954;5.932;2023-04-01T16:31:33;8.60;99.90
53653;DHT22;39553;52.954;5.932;2023-04-01T16:34:21;8.20;99.90
53653;DHT22;39553;52.954;5.932;2023-04-01T16:37:07;8.20;99.90
53653;DHT22;39553;52.954;5.932;2023-04-01T16:39:46;8.10;99.90
53653;DHT22;39553;52.954;5.932;2023-04-01T16:42:43;8.10;99.90
53653;DHT22;39553;52.954;5.932;2023-04-01T16:48:14;8.00;99.90
53653;DHT22;39553;52.954;5.932;2023-04-01T16:53:31;7.90;99.90
53653;DHT22;39553;52.954;5.932;2023-04-01T16:58:34;7.80;99.90
53653;DHT22;39553;52.954;5.932;2023-04-01T17:01:27;7.80;99.90
53653;DHT22;39553;52.954;5.932;2023-04-01T17:04:07;7.70;99.90
53653;DHT22;39553;52.954;5.932;2023-04-01T17:06:51;7.70;99.90
53653;DHT22;39553;52.954;5.932;2023-04-01T17:12:50;7.60;99.90
53653;DHT22;39553;52.954;5.932;2023-04-01T17:23:01;7.50;99.90
53653;DHT22;39553;52.954;5.932;2023-04-01T17:41:53;7.50;99.90
53653;DHT22;39553;52.954;5.932;2023-04-01T17:44:48;7.40;99.90
53653;DHT22;39553;52.954;5.932;2023-04-01T17:50:09;7.30;99.90
53653;DHT22;39553;52.954;5.932;2023-04-01T18:01:19;7.20;99.90
53653;DHT22;39553;52.954;5.932;2023-04-01T18:04:08;7.20;99.90
53653;DHT22;39553;52.954;5.932;2023-04-01T18:12:44;7.10;99.90
53653;DHT22;39553;52.954;5.932;2023-04-01T18:23:41;6.90;99.90
53653;DHT22;39553;52.954;5.932;2023-04-01T18:26:22;6.80;99.90
53653;DHT22;39553;52.954;5.932;2023-04-01T18:28:59;6.90;99.90
53653;DHT22;39553;52.954;5.932;2023-04-01T18:31:34;6.80;99.90
53653;DHT22;39553;52.954;5.932;2023-04-01T18:34:10;6.80;99.90
53653;DHT22;39553;52.954;5.932;2023-04-01T18:36:45;6.80;99.90
53653;DHT22;39553;52.954;5.932;2023-04-01T18:39:16;6.80;99.90
53653;DHT22;39553;52.954;5.932;2023-04-01T18:41:48;6.80;99.90
53653;DHT22;39553;52.954;5.932;2023-04-01T18:47:22;6.70;99.90
53653;DHT22;39553;52.954;5.932;2023-04-01T18:50:06;6.70;99.90
53653;DHT22;39553;52.954;5.932;2023-04-01T18:52:39;6.70;99.90
53653;DHT22;39553;52.954;5.932;2023-04-01T18:57:52;6.70;99.90
53653;DHT22;39553;52.954;5.932;2023-04-01T19:00:32;6.70;99.90
53653;DHT22;39553;52.954;5.932;2023-04-01T19:03:21;6.70;99.90
53653;DHT22;39553;52.954;5.932;2023-04-01T19:05:50;6.70;99.90
53653;DHT22;39553;52.954;5.932;2023-04-01T19:08:37;6.60;99.90
53653;DHT22;39553;52.954;5.932;2023-04-01T19:19:01;6.60;99.90
53653;DHT22;39553;52.954;5.932;2023-04-01T19:21:42;6.60;99.90
53653;DHT22;39553;52.954;5.932;2023-04-01T19:27:10;6.60;99.90
53653;DHT22;39553;52.954;5.932;2023-04-01T19:38:39;6.50;99.90
53653;DHT22;39553;52.954;5.932;2023-04-01T19:50:27;6.40;99.90
53653;DHT22;39553;52.954;5.932;2023-04-01T19:52:56;6.30;99.90
53653;DHT22;39553;52.954;5.932;2023-04-01T19:58:24;6.30;99.90
53653;DHT22;39553;52.954;5.932;2023-04-01T20:00:59;6.30;99.90
53653;DHT22;39553;52.954;5.932;2023-04-01T20:14:43;6.10;99.90
53653;DHT22;39553;52.954;5.932;2023-04-01T20:22:57;6.10;99.90
53653;DHT22;39553;52.954;5.932;2023-04-01T20:25:52;6.10;99.90
53653;DHT22;39553;52.954;5.932;2023-04-01T20:50:34;5.80;99.90
53653;DHT22;39553;52.954;5.932;2023-04-01T20:53:11;5.80;99.90
53653;DHT22;39553;52.954;5.932;2023-04-01T20:58:35;5.80;99.90
53653;DHT22;39553;52.954;5.932;2023-04-01T21:01:20;5.80;99.90
53653;DHT22;39553;52.954;5.932;2023-04-01T21:04:09;5.80;99.90
53653;DHT22;39553;52.954;5.932;2023-04-01T21:12:20;5.70;99.90
53653;DHT22;39553;52.954;5.932;2023-04-01T21:17:49;5.60;99.90
53653;DHT22;39553;52.954;5.932;2023-04-01T21:23:31;5.60;99.90
53653;DHT22;39553;52.954;5.932;2023-04-01T21:31:57;5.60;99.90
53653;DHT22;39553;52.954;5.932;2023-04-01T21:34:48;5.60;99.90
53653;DHT22;39553;52.954;5.932;2023-04-01T21:40:34;5.50;99.90
53653;DHT22;39553;52.954;5.932;2023-04-01T21:55:10;5.60;99.90
53653;DHT22;39553;52.954;5.932;2023-04-01T22:16:47;5.50;99.90
53653;DHT22;39553;52.954;5.932;2023-04-01T22:19:40;5.50;99.90
53653;DHT22;39553;52.954;5.932;2023-04-01T22:25:12;5.50;99.90
53653;DHT22;39553;52.954;5.932;2023-04-01T22:28:19;5.40;99.90
53653;DHT22;39553;52.954;5.932;2023-04-01T22:30:50;5.40;99.90
53653;DHT22;39553;52.954;5.932;2023-04-01T22:47:57;5.30;99.90
53653;DHT22;39553;52.954;5.932;2023-04-01T22:51:38;5.30;99.90
53653;DHT22;39553;52.954;5.932;2023-04-01T22:53:36;5.30;99.90
53653;DHT22;39553;52.954;5.932;2023-04-01T22:56:14;5.30;99.90
53653;DHT22;39553;52.954;5.932;2023-04-01T23:01:30;5.20;99.90
53653;DHT22;39553;52.954;5.932;2023-04-01T23:03:59;5.20;99.90
53653;DHT22;39553;52.954;5.932;2023-04-01T23:06:29;5.20;99.90
53653;DHT22;39553;52.954;5.932;2023-04-01T23:09:04;5.20;99.90
53653;DHT22;39553;52.954;5.932;2023-04-01T23:11:46;5.20;99.90
53653;DHT22;39553;52.954;5.932;2023-04-01T23:19:41;5.10;99.90
53653;DHT22;39553;52.954;5.932;2023-04-01T23:24:54;5.10;99.90
53653;DHT22;39553;52.954;5.932;2023-04-01T23:27:37;5.10;99.90
53653;DHT22;39553;52.954;5.932;2023-04-01T23:36:00;5.10;99.90
53653;DHT22;39553;52.954;5.932;2023-04-01T23:38:42;5.10;99.90
53653;DHT22;39553;52.954;5.932;2023-04-01T23:41:24;5.00;99.90
53653;DHT22;39553;52.954;5.932;2023-04-01T23:44:04;5.00;99.90
53653;DHT22;39553;52.954;5.932;2023-04-01T23:46:33;5.30;99.90
53653;DHT22;39553;52.954;5.932;2023-04-01T23:49:01;5.00;99.90
53653;DHT22;39553;52.954;5.932;2023-04-01T23:51:39;5.00;99.90
53653;DHT22;39553;52.954;5.932;2023-04-01T23:54:43;5.00;99.90
53653;DHT22;39553;52.954;5.932;2023-04-01T23:57:19;4.90;99.90
